Aérodrome :
LOGIN :

S'inscrire | Disclaimer

   EN    FR    IT 

 










Légende :    VFR   VFR Marginal   IFR   IFR Intensif   IFR Très Intensif
Visi : 
Plafond : 
>= 8 km
>= 3000ft
5 à 8 km
1000 à 3000 ft
1500m à 5 km
500 à 1000 ft
800 à 1500m
200 à 500 ft
< 800m
< 200 ft
Symboles :   Orages  Brouillard  Fortes neiges  Fortes précipitations  Vent > 20 kt
SIGMETs :   Divers  Orages  Givrage  Turbulence  Onde Orograph.  Cendres Volcan.






- Altitude de l'aérodrome : 424 ft
- Code IATA : QGY


LHPR - Györ Per

DERNIER METAR :
  • 132015Z AUTO 13003KT CAVOK 09/09 Q1021

METARs EXPIRÉS :
  • 131945Z AUTO 13004KT CAVOK 10/09 Q1021
  • 131915Z AUTO 13004KT CAVOK 11/09 Q1021
  • 131845Z AUTO 00000KT 8000 NCD 12/10 Q1021
  • 131815Z AUTO VRB01KT CAVOK 13/12 Q1021
  • 131745Z AUTO 00000KT CAVOK 13/11 Q1021

TAF TAF LHPR
Valide du 13 à 18h jusqu'au 14 à 03h UTC


131715Z 1318/1403 VRB02KT CAVOK
BECMG 1321/1324 5000 BR NSC
TEMPO 1400/1403 1500 MIFG BKN002



MET'MAP, la Météo Aéronautique d'un coup d'oeil ! - Copyright ORBIFLY Décembre 2007 - Disclaimer

ORBIFLY MET'MAP TEAM :

Programmation & Développement : Alexandra Zaïnal
Conception & Développement : Baudouin d'Aumeries
Co-Programmation & Développement : Marc-Olivier Méhu
Soutien technique & logistique : Manuel Goepfert

Contact : metmap@orbifly.com




SOURCES & CREDITS :

   NOAA